createdAt,value
2023-04-19T00:02:23.845Z,9.35
2023-04-19T00:04:50.422Z,9.38
2023-04-19T00:07:16.938Z,9.40
2023-04-19T00:09:43.361Z,9.37
2023-04-19T00:12:09.782Z,9.34
2023-04-19T00:14:36.113Z,9.41
2023-04-19T00:17:02.655Z,9.25
2023-04-19T00:19:29.055Z,9.36
2023-04-19T00:21:55.535Z,9.49
2023-04-19T00:24:21.962Z,9.49
2023-04-19T00:26:48.588Z,9.37
2023-04-19T00:29:15.142Z,9.33
2023-04-19T00:31:41.492Z,9.29
2023-04-19T00:34:07.884Z,9.30
2023-04-19T00:36:34.247Z,9.29
2023-04-19T00:39:00.681Z,9.28
2023-04-19T00:41:27.168Z,9.29
2023-04-19T00:43:53.568Z,9.18
2023-04-19T00:46:20.599Z,9.22
2023-04-19T00:48:48.088Z,9.24
2023-04-19T00:51:14.626Z,9.25
2023-04-19T00:53:41.760Z,9.21
2023-04-19T00:56:09.588Z,9.28
2023-04-19T00:58:38.069Z,9.37
2023-04-19T01:01:04.434Z,9.24
2023-04-19T01:03:31.112Z,9.19
2023-04-19T01:05:58.312Z,9.13
2023-04-19T01:08:24.693Z,9.13
2023-04-19T01:10:51.325Z,9.08
2023-04-19T01:13:18.031Z,9.07
2023-04-19T01:15:44.598Z,9.11
2023-04-19T01:18:11.930Z,9.08
2023-04-19T01:20:38.361Z,9.02
2023-04-19T01:23:04.818Z,9.01
2023-04-19T01:25:31.291Z,9.12
2023-04-19T01:27:57.678Z,9.04
2023-04-19T01:30:24.095Z,9.04
2023-04-19T01:32:50.660Z,9.21
2023-04-19T01:35:17.405Z,9.05
2023-04-19T01:37:43.772Z,9.07
2023-04-19T01:40:11.041Z,9.02
2023-04-19T01:42:37.553Z,9.00
2023-04-19T01:45:04.419Z,8.99
2023-04-19T01:47:33.552Z,8.99
2023-04-19T01:49:59.966Z,9.02
2023-04-19T01:52:26.361Z,8.95
2023-04-19T01:54:53.084Z,8.97
2023-04-19T01:57:19.578Z,8.95
2023-04-19T01:59:46.235Z,8.86
2023-04-19T02:02:12.683Z,8.87
2023-04-19T02:04:39.198Z,8.86
2023-04-19T02:07:05.608Z,8.78
2023-04-19T02:09:35.782Z,8.82
2023-04-19T02:12:02.341Z,8.82
2023-04-19T02:14:29.170Z,8.79
2023-04-19T02:16:55.696Z,8.81
2023-04-19T02:19:22.527Z,8.85
2023-04-19T02:21:48.960Z,8.86
2023-04-19T02:24:15.994Z,8.97
2023-04-19T02:26:42.555Z,8.82
2023-04-19T02:29:09.345Z,8.78
2023-04-19T02:31:36.478Z,8.77
2023-04-19T02:34:02.882Z,8.78
2023-04-19T02:36:29.306Z,8.87
2023-04-19T02:38:55.795Z,8.87
2023-04-19T02:41:22.299Z,8.71
2023-04-19T02:43:49.020Z,8.59
2023-04-19T02:46:15.434Z,8.59
2023-04-19T02:48:42.160Z,8.63
2023-04-19T02:51:08.601Z,8.61
2023-04-19T02:53:35.261Z,8.59
2023-04-19T02:56:02.355Z,8.50
2023-04-19T02:58:29.022Z,8.46
2023-04-19T03:00:55.512Z,8.44
2023-04-19T03:03:21.909Z,8.42
2023-04-19T03:05:48.635Z,8.37
2023-04-19T03:08:15.363Z,8.37
2023-04-19T03:10:42.526Z,8.24
2023-04-19T03:13:08.861Z,8.16
2023-04-19T03:15:35.381Z,8.18
2023-04-19T03:18:01.868Z,8.08
2023-04-19T03:20:28.336Z,7.95
2023-04-19T03:22:54.803Z,7.95
2023-04-19T03:25:21.580Z,7.94
2023-04-19T03:27:48.282Z,7.93
2023-04-19T03:30:15.435Z,7.95
2023-04-19T03:32:41.968Z,7.87
2023-04-19T03:35:09.139Z,7.79
2023-04-19T03:37:35.678Z,7.86
2023-04-19T03:40:02.383Z,7.79
2023-04-19T03:42:29.246Z,7.77
2023-04-19T03:44:56.730Z,7.65
2023-04-19T03:47:23.298Z,7.62
2023-04-19T03:49:49.745Z,7.58
2023-04-19T03:52:16.379Z,7.50
2023-04-19T03:54:43.053Z,7.41
2023-04-19T03:57:09.581Z,7.35
2023-04-19T03:59:35.988Z,7.33
2023-04-19T04:02:02.761Z,7.30
2023-04-19T04:04:29.492Z,7.22
2023-04-19T04:06:56.320Z,7.20
2023-04-19T04:09:22.759Z,7.21
2023-04-19T04:11:49.206Z,7.35
2023-04-19T04:14:15.741Z,7.31
2023-04-19T04:16:42.455Z,7.37
2023-04-19T04:19:09.065Z,7.25
2023-04-19T04:21:35.836Z,7.21
2023-04-19T04:24:02.250Z,7.14
2023-04-19T04:26:28.850Z,7.17
2023-04-19T04:28:55.232Z,7.17
2023-04-19T04:31:21.777Z,7.19
2023-04-19T04:33:48.253Z,7.23
2023-04-19T04:36:14.642Z,7.15
2023-04-19T04:38:41.170Z,7.09
2023-04-19T04:41:07.688Z,7.05
2023-04-19T04:43:34.175Z,7.06
2023-04-19T04:46:02.068Z,7.04
2023-04-19T04:48:28.807Z,7.03
2023-04-19T04:50:55.299Z,7.05
2023-04-19T04:53:22.088Z,7.05
2023-04-19T04:55:48.926Z,7.10
2023-04-19T04:58:15.756Z,7.11
2023-04-19T05:00:42.189Z,7.33
2023-04-19T05:03:08.689Z,7.50
2023-04-19T05:05:35.524Z,7.46
2023-04-19T05:08:01.937Z,7.48
2023-04-19T05:10:28.461Z,7.52
2023-04-19T05:12:55.114Z,7.57
2023-04-19T05:15:22.396Z,7.61
2023-04-19T05:17:48.976Z,7.63
2023-04-19T05:20:15.633Z,7.74
2023-04-19T05:22:41.997Z,7.85
2023-04-19T05:25:10.597Z,7.89
2023-04-19T05:27:37.262Z,7.92
2023-04-19T05:30:05.190Z,8.07
2023-04-19T05:32:31.723Z,8.19
2023-04-19T05:34:58.566Z,8.30
2023-04-19T05:37:24.971Z,8.32
2023-04-19T05:39:51.432Z,8.30
2023-04-19T05:42:19.301Z,8.64
2023-04-19T05:44:45.664Z,8.44
2023-04-19T05:47:12.078Z,8.52
2023-04-19T05:49:41.266Z,8.58
2023-04-19T05:52:08.755Z,8.50
2023-04-19T05:54:35.386Z,8.42
2023-04-19T05:57:05.246Z,8.65
2023-04-19T05:59:31.929Z,8.54
2023-04-19T06:01:58.534Z,8.49
2023-04-19T06:04:25.508Z,8.59
2023-04-19T06:06:54.753Z,8.78
2023-04-19T06:09:24.428Z,8.76
2023-04-19T06:11:52.068Z,8.93
2023-04-19T06:14:19.106Z,8.97
2023-04-19T06:16:46.057Z,8.99
2023-04-19T06:19:12.534Z,9.10
2023-04-19T06:21:39.409Z,8.99
2023-04-19T06:24:08.587Z,9.14
2023-04-19T06:26:35.122Z,9.22
2023-04-19T06:29:02.677Z,9.32
2023-04-19T06:31:29.436Z,9.48
2023-04-19T06:33:55.877Z,9.40
2023-04-19T06:36:22.319Z,9.52
2023-04-19T06:38:48.755Z,9.56
2023-04-19T06:41:15.297Z,9.59
2023-04-19T06:43:42.159Z,9.73
2023-04-19T06:46:08.887Z,9.70
2023-04-19T06:48:35.613Z,9.45
2023-04-19T06:51:02.365Z,9.44
2023-04-19T06:53:29.081Z,9.50
2023-04-19T06:56:00.250Z,9.57
2023-04-19T06:58:27.690Z,9.49
2023-04-19T07:00:55.162Z,9.49
2023-04-19T07:03:22.756Z,9.84
2023-04-19T07:05:49.757Z,9.85
2023-04-19T07:08:16.461Z,9.91
2023-04-19T07:10:43.028Z,9.85
2023-04-19T07:13:11.330Z,10.30
2023-04-19T07:15:37.969Z,10.16
2023-04-19T07:18:04.771Z,10.44
2023-04-19T07:20:31.567Z,10.55
2023-04-19T07:23:00.806Z,11.00
2023-04-19T07:25:27.727Z,10.79
2023-04-19T07:27:55.883Z,10.85
2023-04-19T07:30:23.665Z,10.50
2023-04-19T07:32:52.594Z,10.62
2023-04-19T07:35:19.204Z,10.63
2023-04-19T07:37:46.072Z,10.95
2023-04-19T07:40:13.382Z,11.15
2023-04-19T07:42:40.070Z,11.34
2023-04-19T07:45:07.337Z,11.19
2023-04-19T07:47:36.159Z,11.43
2023-04-19T07:50:04.840Z,11.80
2023-04-19T07:52:31.225Z,11.87
2023-04-19T07:54:57.576Z,11.84
2023-04-19T07:57:24.012Z,12.44
2023-04-19T07:59:50.740Z,11.49
2023-04-19T08:02:17.767Z,11.32
2023-04-19T08:04:45.441Z,11.52
2023-04-19T08:07:12.527Z,11.35
2023-04-19T08:09:39.142Z,11.07
2023-04-19T08:12:05.782Z,10.72
2023-04-19T08:14:38.046Z,10.94
2023-04-19T08:17:25.544Z,11.20
2023-04-19T08:19:53.560Z,11.14
2023-04-19T08:22:21.697Z,11.00
2023-04-19T08:24:50.513Z,11.11
2023-04-19T08:27:16.899Z,11.63
2023-04-19T08:29:43.725Z,11.25
2023-04-19T08:32:12.614Z,10.95
2023-04-19T08:34:40.023Z,10.81
2023-04-19T08:37:07.167Z,10.74
2023-04-19T08:39:35.511Z,10.92
2023-04-19T08:42:13.202Z,11.12
2023-04-19T08:45:13.671Z,11.08
2023-04-19T08:47:58.813Z,11.24
2023-04-19T08:50:48.396Z,11.44
2023-04-19T08:53:26.118Z,11.17
2023-04-19T08:58:32.952Z,10.97
2023-04-19T09:01:08.172Z,10.81
2023-04-19T09:03:44.270Z,10.71
2023-04-19T09:06:20.051Z,10.77
2023-04-19T09:08:46.611Z,10.86
2023-04-19T09:11:13.523Z,11.21
2023-04-19T09:13:40.652Z,11.46
2023-04-19T09:16:07.521Z,11.28
2023-04-19T09:18:59.925Z,11.66
2023-04-19T09:21:34.067Z,11.54
2023-04-19T09:24:02.424Z,11.68
2023-04-19T09:26:30.730Z,11.46
2023-04-19T09:29:02.114Z,11.96
2023-04-19T09:31:48.137Z,12.23
2023-04-19T09:34:20.404Z,12.51
2023-04-19T09:36:47.118Z,13.14
2023-04-19T09:39:14.387Z,12.91
2023-04-19T09:41:54.561Z,13.08
2023-04-19T09:46:53.893Z,13.56
2023-04-19T09:49:36.960Z,13.14
2023-04-19T09:52:10.513Z,13.29
2023-04-19T09:54:38.229Z,13.19
2023-04-19T09:57:05.216Z,13.37
2023-04-19T09:59:32.019Z,13.01
2023-04-19T10:02:01.207Z,12.39
2023-04-19T10:04:44.080Z,12.78
2023-04-19T10:07:30.242Z,11.89
2023-04-19T10:10:11.664Z,12.16
2023-04-19T10:13:11.583Z,12.25
2023-04-19T10:18:08.841Z,12.87
2023-04-19T10:20:50.424Z,12.87
2023-04-19T10:23:17.792Z,13.16
2023-04-19T10:25:48.187Z,13.26
2023-04-19T10:28:16.764Z,12.90
2023-04-19T10:31:05.197Z,12.90
2023-04-19T10:33:36.242Z,12.39
2023-04-19T10:36:03.419Z,12.30
2023-04-19T10:38:44.044Z,12.62
2023-04-19T10:41:10.652Z,12.68
2023-04-19T10:43:38.614Z,12.65
2023-04-19T10:46:11.214Z,12.70
2023-04-19T10:48:43.027Z,12.80
2023-04-19T10:51:17.536Z,13.02
2023-04-19T10:53:45.381Z,12.61
2023-04-19T10:56:12.227Z,12.44
2023-04-19T10:59:00.685Z,12.44
2023-04-19T11:01:37.634Z,12.75
2023-04-19T11:04:04.793Z,13.03
2023-04-19T11:06:32.434Z,12.43
2023-04-19T11:08:59.692Z,12.77
2023-04-19T11:11:26.746Z,12.63
2023-04-19T11:13:56.340Z,12.53
2023-04-19T11:16:31.319Z,12.85
2023-04-19T11:19:08.713Z,12.91
2023-04-19T11:21:40.542Z,12.47
2023-04-19T11:24:11.494Z,12.30
2023-04-19T11:26:38.239Z,12.27
2023-04-19T11:29:05.184Z,12.05
2023-04-19T11:31:34.737Z,12.07
2023-04-19T11:34:03.055Z,12.19
2023-04-19T11:36:29.450Z,12.29
2023-04-19T11:38:56.286Z,12.36
2023-04-19T11:41:22.791Z,11.91
2023-04-19T11:43:51.148Z,12.04
2023-04-19T11:46:18.839Z,11.79
2023-04-19T11:48:54.614Z,11.44
2023-04-19T11:51:22.139Z,11.20
2023-04-19T11:53:48.686Z,10.99
2023-04-19T11:56:15.703Z,11.00
2023-04-19T11:58:43.330Z,10.91
2023-04-19T12:01:14.517Z,11.06
2023-04-19T12:03:45.301Z,11.12
2023-04-19T12:06:17.982Z,11.03
2023-04-19T12:08:49.279Z,10.80
2023-04-19T12:11:19.153Z,10.84
2023-04-19T12:13:45.718Z,10.72
2023-04-19T12:16:13.872Z,10.30
2023-04-19T12:18:51.459Z,10.36
2023-04-19T12:21:31.811Z,10.29
2023-04-19T12:24:00.600Z,10.21
2023-04-19T12:26:28.682Z,10.04
2023-04-19T12:28:56.164Z,10.05
2023-04-19T12:31:22.790Z,10.07
2023-04-19T12:33:51.609Z,10.00
2023-04-19T12:36:18.159Z,10.13
2023-04-19T12:38:44.600Z,10.13
2023-04-19T12:41:11.537Z,10.09
2023-04-19T12:43:38.180Z,10.30
2023-04-19T12:46:05.707Z,9.99
2023-04-19T12:48:32.241Z,10.08
2023-04-19T12:50:58.958Z,10.27
2023-04-19T12:53:27.197Z,10.40
2023-04-19T12:55:53.718Z,10.53
2023-04-19T12:58:20.757Z,10.51
2023-04-19T13:00:47.562Z,10.47
2023-04-19T13:03:14.139Z,10.42
2023-04-19T13:05:41.877Z,10.03
2023-04-19T13:08:08.761Z,9.76
2023-04-19T13:10:35.445Z,9.84
2023-04-19T13:13:01.857Z,9.62
2023-04-19T13:15:28.256Z,9.75
2023-04-19T13:17:54.996Z,9.66
2023-04-19T13:20:22.441Z,9.80
2023-04-19T13:22:48.973Z,9.83
2023-04-19T13:25:15.766Z,9.75
2023-04-19T13:27:42.624Z,9.98
2023-04-19T13:30:10.556Z,9.66
2023-04-19T13:32:40.302Z,9.74
2023-04-19T13:35:07.240Z,9.63
2023-04-19T13:37:38.529Z,9.50
2023-04-19T13:40:18.071Z,9.58
2023-04-19T13:42:46.492Z,9.41
2023-04-19T13:45:15.462Z,9.33
2023-04-19T13:47:44.179Z,9.43
2023-04-19T13:50:11.162Z,9.47
2023-04-19T13:52:40.103Z,9.56
2023-04-19T13:55:07.151Z,9.94
2023-04-19T13:57:33.684Z,9.77
2023-04-19T14:00:00.444Z,9.69
2023-04-19T14:02:28.536Z,9.53
2023-04-19T14:04:55.842Z,9.34
2023-04-19T14:07:22.231Z,9.33
2023-04-19T14:09:48.712Z,9.55
2023-04-19T14:12:15.096Z,9.30
2023-04-19T14:14:41.591Z,9.47
2023-04-19T14:17:08.016Z,9.48
2023-04-19T14:19:34.389Z,9.42
2023-04-19T14:22:01.077Z,9.28
2023-04-19T14:24:27.795Z,9.38
2023-04-19T14:27:09.125Z,9.31
2023-04-19T14:29:37.221Z,9.17
2023-04-19T14:32:17.138Z,9.11
2023-04-19T14:34:50.799Z,9.08
2023-04-19T14:37:17.930Z,8.93
2023-04-19T14:39:45.299Z,8.92
2023-04-19T14:42:12.115Z,8.98
2023-04-19T14:44:38.443Z,9.07
2023-04-19T14:47:04.902Z,9.23
2023-04-19T14:49:31.651Z,9.45
2023-04-19T14:51:58.290Z,9.58
2023-04-19T14:54:25.253Z,9.44
2023-04-19T14:56:52.017Z,9.23
2023-04-19T14:59:18.601Z,9.19
2023-04-19T15:01:45.084Z,9.09
2023-04-19T15:04:12.159Z,9.08
2023-04-19T15:06:40.826Z,9.09
2023-04-19T15:09:08.396Z,9.04
2023-04-19T15:11:34.863Z,9.04
2023-04-19T15:14:01.325Z,9.04
2023-04-19T15:16:28.090Z,9.14
2023-04-19T15:18:55.105Z,9.40
2023-04-19T15:21:24.337Z,9.42
2023-04-19T15:23:51.454Z,9.58
2023-04-19T15:26:20.333Z,9.75
2023-04-19T15:28:49.208Z,9.92
2023-04-19T15:31:15.720Z,10.37
2023-04-19T15:33:42.429Z,10.13
2023-04-19T15:36:09.239Z,9.99
2023-04-19T15:38:36.168Z,9.89
2023-04-19T15:41:02.925Z,9.92
2023-04-19T15:43:29.476Z,9.85
2023-04-19T15:45:56.206Z,9.89
2023-04-19T15:48:22.846Z,10.23
2023-04-19T15:50:50.728Z,9.86
2023-04-19T15:53:17.538Z,10.00
2023-04-19T15:55:45.973Z,9.95
2023-04-19T15:58:12.391Z,9.88
2023-04-19T16:00:38.876Z,9.86
2023-04-19T16:03:05.470Z,9.53
2023-04-19T16:05:32.201Z,9.60
2023-04-19T16:08:06.942Z,9.75
2023-04-19T16:10:34.349Z,9.86
2023-04-19T16:13:01.429Z,9.47
2023-04-19T16:15:28.759Z,9.56
2023-04-19T16:17:55.873Z,9.69
2023-04-19T16:20:22.693Z,9.76
2023-04-19T16:22:49.322Z,9.82
2023-04-19T16:25:16.415Z,9.59
2023-04-19T16:27:44.318Z,9.51
2023-04-19T16:30:12.278Z,9.64
2023-04-19T16:32:39.637Z,9.61
2023-04-19T16:35:07.598Z,9.74
2023-04-19T16:37:34.579Z,9.87
2023-04-19T16:40:08.487Z,9.97
2023-04-19T16:42:35.777Z,10.00
2023-04-19T16:45:02.559Z,9.93
2023-04-19T16:47:29.153Z,9.90
2023-04-19T16:49:56.777Z,9.91
2023-04-19T16:52:25.373Z,9.85
2023-04-19T16:54:56.896Z,9.77
2023-04-19T16:57:23.648Z,9.76
2023-04-19T16:59:50.731Z,9.67
2023-04-19T17:02:17.779Z,9.27
2023-04-19T17:04:44.668Z,9.29
2023-04-19T17:07:12.158Z,9.32
2023-04-19T17:09:38.737Z,9.37
2023-04-19T17:12:05.775Z,9.42
2023-04-19T17:14:34.532Z,9.33
2023-04-19T17:17:01.383Z,9.20
2023-04-19T17:19:27.961Z,9.25
2023-04-19T17:21:54.499Z,9.29
2023-04-19T17:24:20.974Z,9.30
2023-04-19T17:26:47.866Z,9.29
2023-04-19T17:29:14.263Z,9.23
2023-04-19T17:31:42.121Z,9.23
2023-04-19T17:34:08.634Z,9.14
2023-04-19T17:36:35.184Z,9.06
2023-04-19T17:39:01.585Z,9.06
2023-04-19T17:41:28.344Z,9.08
2023-04-19T17:43:54.812Z,8.96
2023-04-19T17:46:21.229Z,8.88
2023-04-19T17:48:47.770Z,8.84
2023-04-19T17:51:14.538Z,8.78
2023-04-19T17:53:41.230Z,8.68
2023-04-19T17:56:07.720Z,8.59
2023-04-19T17:58:34.193Z,8.54
2023-04-19T18:01:00.641Z,8.54
2023-04-19T18:03:27.484Z,8.47
2023-04-19T18:05:54.135Z,8.45
2023-04-19T18:08:20.620Z,8.35
2023-04-19T18:10:47.201Z,8.19
2023-04-19T18:13:16.572Z,8.10
2023-04-19T18:15:42.963Z,8.03
2023-04-19T18:18:09.471Z,7.93
2023-04-19T18:20:36.505Z,7.86
2023-04-19T18:23:02.946Z,7.82
2023-04-19T18:25:29.705Z,7.79
2023-04-19T18:27:56.165Z,7.65
2023-04-19T18:30:23.041Z,7.55
2023-04-19T18:32:49.496Z,7.46
2023-04-19T18:35:16.120Z,7.40
2023-04-19T18:37:42.940Z,7.36
2023-04-19T18:40:11.935Z,7.69
2023-04-19T18:42:38.681Z,7.75
2023-04-19T18:45:05.712Z,7.86
2023-04-19T18:47:32.277Z,7.93
2023-04-19T18:50:05.191Z,7.82
2023-04-19T18:52:35.402Z,7.82
2023-04-19T18:55:02.483Z,7.81
2023-04-19T18:57:30.479Z,7.82
2023-04-19T19:00:00.945Z,7.64
2023-04-19T19:02:28.103Z,7.50
2023-04-19T19:04:57.775Z,7.31
2023-04-19T19:07:36.323Z,7.29
2023-04-19T19:10:15.955Z,7.19
2023-04-19T19:12:44.601Z,7.08
2023-04-19T19:15:11.301Z,6.91
2023-04-19T19:17:38.119Z,6.85
2023-04-19T19:20:05.829Z,6.78
2023-04-19T19:22:32.898Z,6.68
2023-04-19T19:24:59.413Z,6.67
2023-04-19T19:27:26.114Z,6.62
2023-04-19T19:29:52.844Z,6.51
2023-04-19T19:32:19.575Z,6.40
2023-04-19T19:34:55.602Z,6.39
2023-04-19T19:37:27.734Z,6.21
2023-04-19T19:39:56.737Z,6.12
2023-04-19T19:42:25.506Z,6.00
2023-04-19T19:44:55.499Z,5.94
2023-04-19T19:47:23.451Z,5.87
2023-04-19T19:50:34.929Z,5.88
2023-04-19T19:52:40.577Z,5.82
2023-04-19T19:55:08.502Z,5.74
2023-04-19T20:00:22.937Z,5.64
2023-04-19T20:02:56.048Z,5.57
2023-04-19T20:05:26.815Z,5.45
2023-04-19T20:08:05.821Z,5.39
2023-04-19T20:10:34.504Z,5.32
2023-04-19T20:13:01.445Z,5.33
2023-04-19T20:18:08.775Z,5.20
2023-04-19T20:20:36.558Z,5.10
2023-04-19T20:23:03.481Z,5.10
2023-04-19T20:25:30.894Z,4.96
2023-04-19T20:27:57.346Z,4.93
2023-04-19T20:30:24.753Z,4.97
2023-04-19T20:32:51.246Z,4.95
2023-04-19T20:35:19.475Z,4.92
2023-04-19T20:37:46.569Z,5.00
2023-04-19T20:40:15.083Z,4.94
2023-04-19T20:42:42.379Z,4.91
2023-04-19T20:45:11.451Z,4.91
2023-04-19T20:47:40.483Z,4.87
2023-04-19T20:50:08.482Z,4.82
2023-04-19T20:52:35.474Z,4.79
2023-04-19T20:55:01.962Z,4.75
2023-04-19T20:57:28.422Z,4.70
2023-04-19T20:59:55.263Z,4.61
2023-04-19T21:02:21.759Z,4.60
2023-04-19T21:04:50.867Z,4.49
2023-04-19T21:07:17.279Z,4.43
2023-04-19T21:09:43.986Z,4.34
2023-04-19T21:12:10.716Z,4.25
2023-04-19T21:14:39.880Z,4.26
2023-04-19T21:17:06.950Z,4.22
2023-04-19T21:19:33.323Z,4.13
2023-04-19T21:22:01.034Z,4.05
2023-04-19T21:24:27.750Z,4.03
2023-04-19T21:26:54.528Z,3.98
2023-04-19T21:29:21.619Z,4.00
2023-04-19T21:31:48.044Z,3.90
2023-04-19T21:34:14.596Z,3.91
2023-04-19T21:36:41.063Z,3.83
2023-04-19T21:39:09.378Z,3.80
2023-04-19T21:41:36.921Z,3.77
2023-04-19T21:44:05.784Z,3.69
2023-04-19T21:46:32.532Z,3.63
2023-04-19T21:48:58.951Z,3.55
2023-04-19T21:51:28.032Z,3.53
2023-04-19T21:53:54.854Z,3.46
2023-04-19T21:56:23.904Z,3.45
2023-04-19T21:58:52.274Z,3.39
2023-04-19T22:01:18.692Z,3.38
2023-04-19T22:03:45.808Z,3.38
2023-04-19T22:06:12.369Z,3.32
2023-04-19T22:08:39.364Z,3.28
2023-04-19T22:11:06.117Z,3.21
2023-04-19T22:13:32.518Z,3.21
2023-04-19T22:15:59.378Z,3.22
2023-04-19T22:18:26.099Z,3.18
2023-04-19T22:20:52.458Z,3.07
2023-04-19T22:23:19.089Z,3.10
2023-04-19T22:25:45.645Z,3.07
2023-04-19T22:28:12.156Z,3.04
2023-04-19T22:30:38.603Z,2.98
2023-04-19T22:33:07.498Z,2.94
2023-04-19T22:35:33.879Z,2.87
2023-04-19T22:38:00.509Z,2.81
2023-04-19T22:40:27.009Z,2.78
2023-04-19T22:43:00.868Z,2.75
2023-04-19T22:45:30.526Z,2.77
2023-04-19T22:47:57.003Z,2.71
2023-04-19T22:50:23.604Z,2.60
2023-04-19T22:52:50.386Z,2.49
2023-04-19T22:55:16.874Z,2.45
2023-04-19T22:57:43.261Z,2.33
2023-04-19T23:00:10.115Z,2.25
2023-04-19T23:02:38.454Z,2.23
2023-04-19T23:05:06.414Z,2.21
2023-04-19T23:07:35.424Z,2.25
2023-04-19T23:10:01.845Z,2.18
2023-04-19T23:12:28.287Z,2.18
2023-04-19T23:14:54.636Z,2.18
2023-04-19T23:17:21.140Z,2.15
2023-04-19T23:19:48.926Z,2.13
2023-04-19T23:22:15.588Z,2.09
2023-04-19T23:24:44.323Z,2.05
2023-04-19T23:27:12.553Z,2.00
2023-04-19T23:29:39.097Z,1.98
2023-04-19T23:32:05.849Z,1.95
2023-04-19T23:34:32.416Z,2.00
2023-04-19T23:36:59.931Z,1.93
2023-04-19T23:39:26.464Z,1.86
2023-04-19T23:41:52.939Z,1.81
2023-04-19T23:44:19.373Z,1.77
2023-04-19T23:46:45.775Z,1.80
2023-04-19T23:49:12.362Z,1.68
2023-04-19T23:51:38.879Z,1.57
2023-04-19T23:54:08.089Z,1.60
2023-04-19T23:56:34.806Z,1.58
2023-04-19T23:59:03.373Z,1.52
